createdAt,value
2022-09-01T00:00:14.998Z,99417.38
2022-09-01T00:02:44.141Z,99418.25
2022-09-01T00:05:12.883Z,99422.75
2022-09-01T00:07:41.130Z,99421.66
2022-09-01T00:10:10.384Z,99419.63
2022-09-01T00:12:39.256Z,99431.41
2022-09-01T00:15:10.891Z,99427.88
2022-09-01T00:17:38.736Z,99425.84
2022-09-01T00:20:07.543Z,99419.63
2022-09-01T00:22:35.422Z,99429.31
2022-09-01T00:25:03.236Z,99427.16
2022-09-01T00:27:31.218Z,99426.50
2022-09-01T00:29:59.387Z,99437.19
2022-09-01T00:32:29.027Z,99437.38
2022-09-01T00:34:57.126Z,99435.66
2022-09-01T00:37:24.976Z,99435.66
2022-09-01T00:39:52.883Z,99437.56
2022-09-01T00:42:20.830Z,99434.03
2022-09-01T00:44:48.991Z,99445.66
2022-09-01T00:47:17.045Z,99443.25
2022-09-01T00:49:48.459Z,99431.34
2022-09-01T00:52:20.368Z,99435.47
2022-09-01T00:54:51.791Z,99427.34
2022-09-01T00:57:19.677Z,99430.06
2022-09-01T00:59:52.675Z,99426.59
2022-09-01T01:02:20.651Z,99421.75
2022-09-01T01:04:52.735Z,99428.72
2022-09-01T01:07:22.943Z,99430.41
2022-09-01T01:09:52.343Z,99435.00
2022-09-01T01:12:21.581Z,99430.28
2022-09-01T01:14:51.822Z,99424.38
2022-09-01T01:17:22.660Z,99431.00
2022-09-01T01:20:11.192Z,99424.94
2022-09-01T01:23:05.601Z,99426.91
2022-09-01T01:25:39.775Z,99417.91
2022-09-01T01:28:12.012Z,99417.59
2022-09-01T01:30:41.967Z,99418.97
2022-09-01T01:33:10.083Z,99415.38
2022-09-01T01:35:39.999Z,99407.59
2022-09-01T01:38:08.728Z,99411.19
2022-09-01T01:40:39.145Z,99408.38
2022-09-01T01:43:08.780Z,99410.00
2022-09-01T01:45:36.829Z,99407.03
2022-09-01T01:48:10.882Z,99406.94
2022-09-01T01:50:40.639Z,99404.91
2022-09-01T01:53:10.889Z,99403.66
2022-09-01T01:55:43.794Z,99413.25
2022-09-01T01:58:12.516Z,99413.00
2022-09-01T02:00:42.863Z,99409.78
2022-09-01T02:03:12.770Z,99409.78
2022-09-01T02:05:40.920Z,99408.53
2022-09-01T02:08:10.874Z,99400.66
2022-09-01T02:10:43.723Z,99406.41
2022-09-01T02:13:16.470Z,99398.53
2022-09-01T02:15:47.414Z,99400.78
2022-09-01T02:18:18.240Z,99402.25
2022-09-01T02:20:47.686Z,99393.31
2022-09-01T02:23:18.134Z,99400.16
2022-09-01T02:26:14.087Z,99396.63
2022-09-01T02:28:40.004Z,99396.06
2022-09-01T02:31:08.973Z,99395.47
2022-09-01T02:33:38.029Z,99390.31
2022-09-01T02:36:12.764Z,99388.59
2022-09-01T02:38:41.821Z,99384.06
2022-09-01T02:41:12.063Z,99385.53
2022-09-01T02:43:40.269Z,99387.69
2022-09-01T02:46:08.463Z,99388.38
2022-09-01T02:48:39.354Z,99382.13
2022-09-01T02:51:11.403Z,99379.50
2022-09-01T02:53:41.761Z,99375.75
2022-09-01T02:56:14.189Z,99380.03
2022-09-01T02:58:46.794Z,99375.66
2022-09-01T03:01:21.097Z,99375.31
2022-09-01T03:03:50.101Z,99381.50
2022-09-01T03:06:21.055Z,99376.84
2022-09-01T03:08:49.376Z,99372.50
2022-09-01T03:11:19.101Z,99370.25
2022-09-01T03:13:46.935Z,99373.19
2022-09-01T03:16:14.832Z,99367.09
2022-09-01T03:18:43.259Z,99374.34
2022-09-01T03:21:15.036Z,99375.19
2022-09-01T03:23:44.880Z,99369.84
2022-09-01T03:26:13.727Z,99371.34
2022-09-01T03:28:43.349Z,99366.88
2022-09-01T03:31:11.389Z,99369.88
2022-09-01T03:33:39.596Z,99368.41
2022-09-01T03:36:19.119Z,99365.66
2022-09-01T03:38:49.173Z,99368.91
2022-09-01T03:41:21.591Z,99371.06
2022-09-01T03:43:51.280Z,99366.41
2022-09-01T03:46:22.413Z,99365.34
2022-09-01T03:48:52.717Z,99365.97
2022-09-01T03:51:22.926Z,99368.56
2022-09-01T03:53:54.556Z,99369.28
2022-09-01T03:56:24.724Z,99362.69
2022-09-01T03:58:54.827Z,99364.94
2022-09-01T04:01:23.063Z,99378.38
2022-09-01T04:03:52.239Z,99368.81
2022-09-01T04:06:26.014Z,99372.28
2022-09-01T04:09:02.751Z,99373.25
2022-09-01T04:11:33.812Z,99373.16
2022-09-01T04:14:03.442Z,99373.38
2022-09-01T04:16:53.771Z,99374.25
2022-09-01T04:19:26.499Z,99382.41
2022-09-01T04:22:00.257Z,99371.78
2022-09-01T04:24:34.848Z,99381.41
2022-09-01T04:27:07.332Z,99377.50
2022-09-01T04:29:37.117Z,99387.03
2022-09-01T04:32:09.961Z,99382.19
2022-09-01T04:34:41.808Z,99381.78
2022-09-01T04:37:14.887Z,99381.50
2022-09-01T04:39:51.243Z,99379.28
2022-09-01T04:42:21.741Z,99376.44
2022-09-01T04:44:51.461Z,99371.72
2022-09-01T04:47:29.946Z,99372.28
2022-09-01T04:50:14.340Z,99376.84
2022-09-01T04:52:45.943Z,99373.63
2022-09-01T04:55:30.328Z,99373.72
2022-09-01T04:58:00.155Z,99368.81
2022-09-01T05:00:32.727Z,99368.44
2022-09-01T05:03:04.559Z,99369.97
2022-09-01T05:05:54.116Z,99385.19
2022-09-01T05:08:24.916Z,99379.66
2022-09-01T05:10:57.045Z,99389.41
2022-09-01T05:13:38.925Z,99386.75
2022-09-01T05:16:13.070Z,99389.84
2022-09-01T05:18:45.111Z,99392.47
2022-09-01T05:21:16.478Z,99394.56
2022-09-01T05:23:44.752Z,99397.91
2022-09-01T05:26:16.962Z,99393.97
2022-09-01T05:28:46.203Z,99392.94
2022-09-01T05:31:19.658Z,99401.66
2022-09-01T05:33:50.028Z,99399.75
2022-09-01T05:36:21.563Z,99400.19
2022-09-01T05:38:52.325Z,99405.44
2022-09-01T05:41:23.988Z,99392.31
2022-09-01T05:43:57.847Z,99400.00
2022-09-01T05:46:30.172Z,99405.91
2022-09-01T05:48:59.393Z,99409.84
2022-09-01T05:51:46.435Z,99406.47
2022-09-01T05:54:23.254Z,99408.94
2022-09-01T05:56:53.617Z,99410.06
2022-09-01T05:59:25.990Z,99409.06
2022-09-01T06:02:00.835Z,99400.81
2022-09-01T06:04:30.063Z,99411.81
2022-09-01T06:07:08.502Z,99412.38
2022-09-01T06:09:41.524Z,99422.00
2022-09-01T06:12:17.894Z,99426.47
2022-09-01T06:14:47.067Z,99424.03
2022-09-01T06:17:22.151Z,99425.19
2022-09-01T06:19:52.610Z,99421.56
2022-09-01T06:22:20.784Z,99420.88
2022-09-01T06:24:54.501Z,99416.78
2022-09-01T06:27:24.710Z,99430.94
2022-09-01T06:29:54.345Z,99430.41
2022-09-01T06:32:25.981Z,99420.19
2022-09-01T06:34:58.330Z,99430.63
2022-09-01T06:37:28.893Z,99426.03
2022-09-01T06:40:02.418Z,99424.31
2022-09-01T06:42:35.390Z,99419.28
2022-09-01T06:45:03.654Z,99419.63
2022-09-01T06:47:33.811Z,99423.75
2022-09-01T06:50:01.909Z,99415.19
2022-09-01T06:53:32.165Z,99422.72
2022-09-01T06:55:18.560Z,99426.91
2022-09-01T06:58:13.922Z,99428.69
2022-09-01T07:00:43.659Z,99429.31
2022-09-01T07:03:14.966Z,99434.19
2022-09-01T07:06:02.385Z,99430.72
2022-09-01T07:14:28.304Z,99426.19
2022-09-01T07:17:22.982Z,99427.75
2022-09-01T07:22:37.233Z,99436.88
2022-09-01T07:25:34.327Z,99436.16
2022-09-01T07:28:25.391Z,99436.81
2022-09-01T07:30:54.061Z,99446.13
2022-09-01T07:36:29.656Z,99446.13
2022-09-01T07:42:58.961Z,99436.16
2022-09-01T07:45:26.633Z,99440.34
2022-09-01T07:48:06.613Z,99457.25
2022-09-01T07:53:36.774Z,99455.50
2022-09-01T07:56:09.595Z,99450.91
2022-09-01T07:58:43.160Z,99452.56
2022-09-01T08:01:13.378Z,99466.34
2022-09-01T08:03:42.580Z,99452.38
2022-09-01T08:06:14.248Z,99451.53
2022-09-01T08:08:43.551Z,99452.94
2022-09-01T08:11:16.659Z,99451.78
2022-09-01T08:13:44.822Z,99448.28
2022-09-01T08:16:21.907Z,99458.63
2022-09-01T08:18:51.274Z,99456.69
2022-09-01T08:21:27.530Z,99460.34
2022-09-01T08:24:09.623Z,99456.16
2022-09-01T08:26:37.875Z,99454.72
2022-09-01T08:29:06.958Z,99459.00
2022-09-01T08:31:42.275Z,99457.47
2022-09-01T08:34:12.872Z,99462.16
2022-09-01T08:39:10.118Z,99463.13
2022-09-01T08:41:47.248Z,99455.75
2022-09-01T08:44:28.560Z,99459.00
2022-09-01T08:47:02.687Z,99459.16
2022-09-01T08:49:42.531Z,99455.38
2022-09-01T08:52:20.013Z,99455.84
2022-09-01T08:54:54.193Z,99448.53
2022-09-01T08:57:24.771Z,99460.25
2022-09-01T09:00:15.255Z,99457.06
2022-09-01T09:03:00.192Z,99462.25
2022-09-01T09:05:41.021Z,99462.09
2022-09-01T09:08:33.609Z,99457.94
2022-09-01T09:11:06.302Z,99458.53
2022-09-01T09:13:48.227Z,99459.53
2022-09-01T09:16:20.997Z,99450.72
2022-09-01T09:18:55.835Z,99455.38
2022-09-01T09:21:28.201Z,99462.63
2022-09-01T09:24:05.131Z,99456.16
2022-09-01T09:26:49.579Z,99456.69
2022-09-01T09:29:18.119Z,99448.53
2022-09-01T09:31:49.865Z,99447.88
2022-09-01T09:34:33.170Z,99442.56
2022-09-01T09:37:20.567Z,99447.28
2022-09-01T09:40:08.497Z,99443.38
2022-09-01T09:42:40.373Z,99444.50
2022-09-01T09:45:19.203Z,99439.97
2022-09-01T09:47:47.770Z,99434.38
2022-09-01T09:50:23.937Z,99434.09
2022-09-01T09:52:55.725Z,99437.25
2022-09-01T09:55:29.187Z,99431.72
2022-09-01T09:58:00.560Z,99435.88
2022-09-01T10:00:30.375Z,99435.44
2022-09-01T10:03:01.375Z,99424.66
2022-09-01T10:05:39.762Z,99431.16
2022-09-01T10:08:09.884Z,99440.53
2022-09-01T10:10:40.968Z,99432.16
2022-09-01T10:13:14.827Z,99430.72
2022-09-01T10:15:49.166Z,99429.41
2022-09-01T10:18:29.011Z,99423.72
2022-09-01T10:21:00.535Z,99426.06
2022-09-01T10:23:31.380Z,99425.91
2022-09-01T10:26:05.998Z,99431.06
2022-09-01T10:28:49.575Z,99422.72
2022-09-01T10:31:23.988Z,99423.72
2022-09-01T10:33:58.625Z,99414.88
2022-09-01T10:36:26.778Z,99409.66
2022-09-01T10:39:04.654Z,99408.06
2022-09-01T10:42:00.770Z,99405.81
2022-09-01T10:44:34.362Z,99410.78
2022-09-01T10:47:19.914Z,99420.63
2022-09-01T10:50:07.908Z,99412.69
2022-09-01T10:52:57.025Z,99416.41
2022-09-01T10:55:29.021Z,99408.78
2022-09-01T11:05:18.793Z,99418.88
2022-09-01T11:08:14.971Z,99410.97
2022-09-01T11:10:52.534Z,99406.56
2022-09-01T11:13:47.622Z,99406.69
2022-09-01T11:16:50.081Z,99408.97
2022-09-01T11:19:37.866Z,99407.91
2022-09-01T11:22:29.502Z,99406.63
2022-09-01T11:25:40.091Z,99404.53
2022-09-01T11:28:47.022Z,99396.72
2022-09-01T11:31:23.953Z,99389.50
2022-09-01T11:34:10.784Z,99380.06
2022-09-01T11:36:48.678Z,99391.91
2022-09-01T11:39:30.592Z,99386.81
2022-09-01T11:42:06.776Z,99391.38
2022-09-01T11:44:42.529Z,99376.47
2022-09-01T11:47:16.646Z,99371.44
2022-09-01T11:49:54.864Z,99377.00
2022-09-01T11:52:24.860Z,99369.06
2022-09-01T11:54:52.754Z,99376.78
2022-09-01T11:57:24.822Z,99372.97
2022-09-01T11:59:53.829Z,99369.47
2022-09-01T12:02:25.252Z,99371.91
2022-09-01T12:04:56.307Z,99369.28
2022-09-01T12:07:33.540Z,99364.94
2022-09-01T12:10:01.647Z,99357.94
2022-09-01T12:12:33.661Z,99362.06
2022-09-01T12:15:06.781Z,99353.66
2022-09-01T12:17:35.821Z,99351.22
2022-09-01T12:20:38.636Z,99344.47
2022-09-01T12:23:19.194Z,99343.19
2022-09-01T12:25:48.281Z,99345.94
2022-09-01T12:28:16.868Z,99343.09
2022-09-01T12:30:45.319Z,99334.88
2022-09-01T12:33:23.347Z,99340.78
2022-09-01T12:35:58.829Z,99338.81
2022-09-01T12:38:31.196Z,99337.13
2022-09-01T12:41:00.057Z,99337.59
2022-09-01T12:43:30.387Z,99330.78
2022-09-01T12:46:00.075Z,99333.91
2022-09-01T12:48:30.783Z,99325.06
2022-09-01T12:51:04.724Z,99334.66
2022-09-01T12:53:36.721Z,99326.91
2022-09-01T12:56:22.785Z,99328.63
2022-09-01T12:58:54.294Z,99329.09
2022-09-01T13:01:28.564Z,99335.84
2022-09-01T13:04:14.242Z,99330.09
2022-09-01T13:06:43.511Z,99328.59
2022-09-01T13:09:11.477Z,99324.56
2022-09-01T13:14:28.498Z,99323.50
2022-09-01T13:16:56.272Z,99332.19
2022-09-01T13:19:28.803Z,99334.09
2022-09-01T13:22:00.009Z,99321.28
2022-09-01T13:24:30.414Z,99328.13
2022-09-01T13:29:47.437Z,99319.38
2022-09-01T13:32:19.100Z,99325.41
2022-09-01T13:34:50.364Z,99323.81
2022-09-01T13:37:20.688Z,99318.06
2022-09-01T13:39:48.715Z,99324.50
2022-09-01T13:42:17.437Z,99318.34
2022-09-01T13:44:48.415Z,99327.41
2022-09-01T13:47:32.976Z,99323.28
2022-09-01T13:50:11.331Z,99326.41
2022-09-01T13:52:42.928Z,99325.19
2022-09-01T13:55:12.901Z,99319.53
2022-09-01T13:57:41.325Z,99317.34
2022-09-01T14:00:13.293Z,99320.38
2022-09-01T14:02:49.085Z,99315.44
2022-09-01T14:05:17.567Z,99314.81
2022-09-01T14:07:47.128Z,99320.59
2022-09-01T14:10:15.485Z,99316.63
2022-09-01T14:12:43.872Z,99315.38
2022-09-01T14:15:15.969Z,99318.19
2022-09-01T14:17:45.609Z,99307.31
2022-09-01T14:20:16.057Z,99312.94
2022-09-01T14:22:44.267Z,99311.56
2022-09-01T14:25:13.724Z,99310.06
2022-09-01T14:27:42.820Z,99310.25
2022-09-01T14:30:16.672Z,99314.22
2022-09-01T14:32:45.055Z,99305.88
2022-09-01T14:35:13.358Z,99295.75
2022-09-01T14:37:42.022Z,99305.38
2022-09-01T14:40:16.852Z,99294.22
2022-09-01T14:42:49.642Z,99291.59
2022-09-01T14:45:18.788Z,99293.94
2022-09-01T14:47:47.632Z,99292.75
2022-09-01T14:50:19.887Z,99292.28
2022-09-01T14:52:52.890Z,99289.75
2022-09-01T14:55:22.209Z,99288.75
2022-09-01T14:57:52.243Z,99281.78
2022-09-01T15:00:20.820Z,99284.34
2022-09-01T15:02:49.727Z,99286.97
2022-09-01T15:05:18.112Z,99274.75
2022-09-01T15:07:46.286Z,99266.97
2022-09-01T15:10:24.573Z,99272.38
2022-09-01T15:12:57.005Z,99265.09
2022-09-01T15:15:26.311Z,99272.66
2022-09-01T15:17:54.595Z,99271.38
2022-09-01T15:20:40.634Z,99271.41
2022-09-01T15:23:08.994Z,99267.72
2022-09-01T15:25:36.897Z,99263.50
2022-09-01T15:28:06.816Z,99260.72
2022-09-01T15:30:35.970Z,99255.19
2022-09-01T15:33:04.828Z,99255.28
2022-09-01T15:35:33.598Z,99268.00
2022-09-01T15:38:01.876Z,99257.41
2022-09-01T15:40:30.285Z,99258.88
2022-09-01T15:43:00.010Z,99260.72
2022-09-01T15:45:30.082Z,99256.03
2022-09-01T15:47:58.103Z,99258.53
2022-09-01T15:50:27.945Z,99255.81
2022-09-01T15:52:58.575Z,99256.25
2022-09-01T15:55:28.865Z,99257.41
2022-09-01T15:57:56.624Z,99260.84
2022-09-01T16:00:26.756Z,99258.22
2022-09-01T16:02:56.648Z,99251.34
2022-09-01T16:05:25.122Z,99264.13
2022-09-01T16:10:23.223Z,99253.94
2022-09-01T16:12:51.747Z,99255.47
2022-09-01T16:15:21.866Z,99258.63
2022-09-01T16:18:12.533Z,99245.97
2022-09-01T16:20:50.951Z,99254.66
2022-09-01T16:23:21.462Z,99241.50
2022-09-01T16:25:50.249Z,99257.59
2022-09-01T16:28:27.284Z,99245.38
2022-09-01T16:31:01.012Z,99247.63
2022-09-01T16:33:28.957Z,99236.81
2022-09-01T16:36:17.171Z,99242.00
2022-09-01T16:38:49.954Z,99233.72
2022-09-01T16:41:41.058Z,99235.78
2022-09-01T16:44:18.988Z,99235.59
2022-09-01T16:46:55.507Z,99236.88
2022-09-01T16:49:30.184Z,99239.69
2022-09-01T16:52:05.479Z,99235.63
2022-09-01T16:54:43.809Z,99235.59
2022-09-01T16:57:21.672Z,99234.31
2022-09-01T16:59:55.631Z,99227.53
2022-09-01T17:02:49.951Z,99230.19
2022-09-01T17:05:24.035Z,99238.44
2022-09-01T17:08:06.840Z,99236.84
2022-09-01T17:10:42.804Z,99237.41
2022-09-01T17:13:20.132Z,99235.50
2022-09-01T17:15:53.791Z,99230.06
2022-09-01T17:18:30.815Z,99236.03
2022-09-01T17:21:04.099Z,99230.06
2022-09-01T17:23:40.681Z,99236.56
2022-09-01T17:26:14.583Z,99234.25
2022-09-01T17:28:51.866Z,99247.94
2022-09-01T17:31:38.346Z,99244.25
2022-09-01T17:34:21.043Z,99252.09
2022-09-01T17:36:58.186Z,99248.63
2022-09-01T17:39:42.136Z,99258.22
2022-09-01T17:42:23.027Z,99245.81
2022-09-01T17:44:56.100Z,99260.78
2022-09-01T17:47:37.257Z,99255.63
2022-09-01T17:50:15.231Z,99252.13
2022-09-01T17:52:52.874Z,99249.38
2022-09-01T17:55:37.130Z,99263.63
2022-09-01T17:58:12.884Z,99258.84
2022-09-01T18:00:52.674Z,99256.91
2022-09-01T18:03:44.784Z,99252.88
2022-09-01T18:06:18.273Z,99250.09
2022-09-01T18:08:49.891Z,99246.44
2022-09-01T18:11:27.601Z,99251.78
2022-09-01T18:14:00.855Z,99256.56
2022-09-01T18:16:31.111Z,99253.22
2022-09-01T18:19:04.031Z,99256.16
2022-09-01T18:21:36.649Z,99261.31
2022-09-01T18:24:14.176Z,99265.72
2022-09-01T18:26:47.732Z,99258.19
2022-09-01T18:29:16.038Z,99259.31
2022-09-01T18:32:03.862Z,99274.88
2022-09-01T18:34:48.886Z,99270.09
2022-09-01T18:37:25.452Z,99277.63
2022-09-01T18:40:01.381Z,99271.16
2022-09-01T18:42:37.202Z,99271.69
2022-09-01T18:45:16.524Z,99271.53
2022-09-01T18:47:55.951Z,99275.25
2022-09-01T18:50:29.013Z,99275.44
2022-09-01T18:53:05.648Z,99280.66
2022-09-01T18:55:43.796Z,99274.78
2022-09-01T18:58:25.884Z,99288.38
2022-09-01T19:01:03.932Z,99281.72
2022-09-01T19:03:34.930Z,99280.84
2022-09-01T19:06:20.262Z,99284.34
2022-09-01T19:09:04.197Z,99284.47
2022-09-01T19:11:55.531Z,99287.31
2022-09-01T19:14:31.711Z,99289.72
2022-09-01T19:17:25.931Z,99288.31
2022-09-01T19:19:58.910Z,99287.84
2022-09-01T19:22:34.987Z,99291.84
2022-09-01T19:25:21.353Z,99292.00
2022-09-01T19:27:56.878Z,99300.88
2022-09-01T19:30:26.299Z,99292.28
2022-09-01T19:32:55.051Z,99291.59
2022-09-01T19:35:23.235Z,99292.59
2022-09-01T19:37:51.838Z,99296.13
2022-09-01T19:40:26.345Z,99295.00
2022-09-01T19:42:59.651Z,99298.72
2022-09-01T19:45:39.023Z,99293.81
2022-09-01T19:48:16.427Z,99296.88
2022-09-01T19:50:51.022Z,99299.00
2022-09-01T19:53:36.404Z,99300.16
2022-09-01T19:56:10.230Z,99300.25
2022-09-01T19:58:52.702Z,99304.19
2022-09-01T20:01:34.290Z,99297.31
2022-09-01T20:04:11.850Z,99297.84
2022-09-01T20:06:43.888Z,99296.56
2022-09-01T20:09:17.446Z,99296.09
2022-09-01T20:11:52.677Z,99295.34
2022-09-01T20:14:44.363Z,99290.63
2022-09-01T20:17:21.204Z,99298.00
2022-09-01T20:19:55.258Z,99298.31
2022-09-01T20:22:31.293Z,99290.63
2022-09-01T20:25:08.470Z,99295.63
2022-09-01T20:27:46.150Z,99297.06
2022-09-01T20:30:15.948Z,99292.38
2022-09-01T20:32:53.214Z,99290.19
2022-09-01T20:35:25.743Z,99287.69
2022-09-01T20:38:03.837Z,99292.69
2022-09-01T20:40:35.781Z,99285.94
2022-09-01T20:43:18.561Z,99294.38
2022-09-01T20:45:46.846Z,99293.13
2022-09-01T20:48:18.880Z,99298.63
2022-09-01T20:50:52.558Z,99291.75
2022-09-01T20:53:43.824Z,99295.78
2022-09-01T20:56:20.183Z,99297.22
2022-09-01T20:58:54.814Z,99292.19
2022-09-01T21:01:32.455Z,99287.63
2022-09-01T21:04:09.316Z,99289.03
2022-09-01T21:06:50.121Z,99294.53
2022-09-01T21:09:28.864Z,99293.88
2022-09-01T21:12:06.483Z,99286.44
2022-09-01T21:14:46.858Z,99291.41
2022-09-01T21:17:24.692Z,99295.75
2022-09-01T21:20:05.890Z,99299.22
2022-09-01T21:22:33.720Z,99300.31
2022-09-01T21:25:01.762Z,99303.53
2022-09-01T21:27:36.946Z,99301.34
2022-09-01T21:30:07.608Z,99299.13
2022-09-01T21:32:35.706Z,99294.19
2022-09-01T21:35:06.493Z,99296.81
2022-09-01T21:37:34.362Z,99305.47
2022-09-01T21:40:02.486Z,99303.09
2022-09-01T21:42:33.700Z,99300.47
2022-09-01T21:45:02.489Z,99298.13
2022-09-01T21:47:31.874Z,99301.53
2022-09-01T21:49:59.710Z,99303.25
2022-09-01T21:52:29.177Z,99295.69
2022-09-01T21:54:57.043Z,99296.31
2022-09-01T21:57:25.059Z,99297.81
2022-09-01T21:59:52.883Z,99300.72
2022-09-01T22:02:21.205Z,99292.72
2022-09-01T22:04:49.164Z,99293.03
2022-09-01T22:07:21.151Z,99292.56
2022-09-01T22:09:50.366Z,99292.81
2022-09-01T22:12:18.285Z,99297.19
2022-09-01T22:14:46.121Z,99288.91
2022-09-01T22:17:13.939Z,99289.31
2022-09-01T22:19:41.763Z,99291.63
2022-09-01T22:22:12.911Z,99287.88
2022-09-01T22:24:40.716Z,99295.38
2022-09-01T22:27:10.072Z,99284.25
2022-09-01T22:29:37.899Z,99292.47
2022-09-01T22:32:06.005Z,99286.88
2022-09-01T22:34:34.478Z,99288.56
2022-09-01T22:37:02.725Z,99290.22
2022-09-01T22:39:30.662Z,99287.00
2022-09-01T22:41:58.492Z,99290.31
2022-09-01T22:44:27.718Z,99286.91
2022-09-01T22:46:55.501Z,99292.22
2022-09-01T22:49:23.348Z,99301.34
2022-09-01T22:51:51.423Z,99300.00
2022-09-01T22:54:19.287Z,99304.44
2022-09-01T22:56:49.783Z,99308.59
2022-09-01T22:59:17.649Z,99309.25
2022-09-01T23:01:48.601Z,99303.19
2022-09-01T23:04:17.908Z,99303.53
2022-09-01T23:06:49.475Z,99306.97
2022-09-01T23:09:18.595Z,99305.38
2022-09-01T23:11:47.712Z,99308.41
2022-09-01T23:14:15.708Z,99293.59
2022-09-01T23:16:43.595Z,99299.78
2022-09-01T23:19:12.838Z,99291.31
2022-09-01T23:21:40.718Z,99280.66
2022-09-01T23:24:08.837Z,99290.88
2022-09-01T23:26:36.930Z,99287.13
2022-09-01T23:29:05.106Z,99286.97
2022-09-01T23:31:35.896Z,99287.63
2022-09-01T23:34:04.816Z,99283.66
2022-09-01T23:36:35.412Z,99292.50
2022-09-01T23:39:03.270Z,99295.28
2022-09-01T23:41:33.460Z,99286.22
2022-09-01T23:44:03.809Z,99298.56
2022-09-01T23:46:33.420Z,99304.00
2022-09-01T23:49:02.430Z,99298.53
2022-09-01T23:51:30.362Z,99299.63
2022-09-01T23:53:59.569Z,99291.66
2022-09-01T23:56:30.170Z,99296.06
2022-09-01T23:58:58.527Z,99295.25
